Hatley, Mississippi
Current Conditions -  °F | °C
As of 6:35 AM on Monday 24 Nov 2014 (Local Time) from KM40 Reporting Station
Broken Clouds Broken Clouds  
Wind Chill: 61°   Ceiling: 2900
Heat Index: 61°   Visibility: 10mi
Dew Point: 45°   Wind: 10mph
Humidity: 55%   Direction: 240°WSW
Pressure: 29.73"   Gusts: 20mph
Location:  33.9755°N, 88.4422°W
Report Text: KM40 241235Z AUTO 24009G17KT 10SM BKN029 16/07 A2973 RMK AO2
Loading
Personal Weather Stations






























Interactive Weather Map New forecast layout! Learn more

10-Day Weather Forecast

Advertisements
Track Severe Weather on mobile